createdAt,value
2022-09-26T00:02:07.686Z,10.66
2022-09-26T00:07:10.459Z,10.59
2022-09-26T00:12:13.150Z,10.62
2022-09-26T00:17:15.826Z,10.59
2022-09-26T00:22:18.911Z,10.57
2022-09-26T00:27:22.312Z,10.64
2022-09-26T00:32:25.119Z,10.65
2022-09-26T00:37:27.909Z,10.57
2022-09-26T00:42:30.894Z,10.65
2022-09-26T00:47:33.580Z,10.69
2022-09-26T00:52:37.006Z,10.60
2022-09-26T00:57:39.741Z,10.62
2022-09-26T01:02:42.620Z,10.64
2022-09-26T01:07:45.354Z,10.61
2022-09-26T01:12:48.188Z,10.61
2022-09-26T01:17:51.118Z,10.57
2022-09-26T01:22:53.776Z,10.57
2022-09-26T01:27:56.502Z,10.64
2022-09-26T01:32:59.949Z,10.67
2022-09-26T01:38:03.260Z,10.72
2022-09-26T01:43:06.177Z,10.72
2022-09-26T01:48:09.076Z,10.69
2022-09-26T01:53:12.865Z,10.64
2022-09-26T01:58:15.693Z,10.66
2022-09-26T02:03:18.437Z,10.67
2022-09-26T02:08:21.174Z,10.60
2022-09-26T02:13:24.010Z,10.65
2022-09-26T02:18:26.694Z,10.67
2022-09-26T02:23:29.393Z,10.63
2022-09-26T02:28:32.290Z,10.62
2022-09-26T02:33:35.033Z,10.59
2022-09-26T02:38:38.179Z,10.55
2022-09-26T02:43:41.160Z,10.54
2022-09-26T02:48:43.864Z,10.54
2022-09-26T02:53:46.548Z,10.55
2022-09-26T02:58:49.225Z,10.54
2022-09-26T03:03:51.904Z,10.49
2022-09-26T03:08:54.873Z,10.39
2022-09-26T03:13:57.595Z,10.33
2022-09-26T03:19:00.252Z,10.25
2022-09-26T03:24:02.979Z,10.33
2022-09-26T03:29:05.921Z,10.38
2022-09-26T03:34:09.098Z,10.46
2022-09-26T03:39:11.822Z,10.42
2022-09-26T03:44:14.676Z,10.46
2022-09-26T03:49:17.424Z,10.48
2022-09-26T03:54:20.083Z,10.52
2022-09-26T03:59:22.772Z,10.42
2022-09-26T04:04:25.478Z,10.45
2022-09-26T04:09:28.242Z,10.49
2022-09-26T04:14:31.423Z,10.48
2022-09-26T04:19:34.138Z,10.48
2022-09-26T04:24:38.287Z,10.51
2022-09-26T04:29:41.128Z,10.55
2022-09-26T04:34:44.542Z,10.53
2022-09-26T04:39:47.342Z,10.56
2022-09-26T04:44:50.018Z,10.60
2022-09-26T04:49:52.861Z,10.56
2022-09-26T04:54:55.667Z,10.53
2022-09-26T04:59:58.855Z,10.49
2022-09-26T05:05:01.870Z,10.43
2022-09-26T05:10:04.761Z,10.40
2022-09-26T05:15:08.829Z,10.28
2022-09-26T05:20:12.243Z,10.30
2022-09-26T05:25:32.939Z,10.22
2022-09-26T05:30:35.737Z,10.17
2022-09-26T05:35:38.447Z,10.18
2022-09-26T05:40:59.701Z,10.05
2022-09-26T05:46:03.887Z,10.09
2022-09-26T05:51:06.690Z,10.01
2022-09-26T05:56:18.524Z,10.10
2022-09-26T06:01:22.713Z,10.11
2022-09-26T06:06:25.605Z,10.16
2022-09-26T06:11:30.728Z,10.22
2022-09-26T06:16:34.307Z,10.11
2022-09-26T06:21:39.916Z,10.21
2022-09-26T06:26:43.120Z,10.46
2022-09-26T06:31:46.371Z,10.89
2022-09-26T06:36:49.127Z,10.94
2022-09-26T06:41:56.260Z,10.73
2022-09-26T06:47:00.814Z,10.83
2022-09-26T06:52:03.690Z,10.77
2022-09-26T06:57:06.407Z,11.07
2022-09-26T07:02:09.250Z,11.24
2022-09-26T07:07:12.049Z,11.15
2022-09-26T07:12:16.113Z,11.21
2022-09-26T07:17:19.052Z,11.37
2022-09-26T07:22:21.801Z,11.49
2022-09-26T07:27:25.606Z,11.61
2022-09-26T07:32:28.721Z,11.54
2022-09-26T07:37:31.441Z,11.57
2022-09-26T07:42:35.663Z,11.50
2022-09-26T07:47:56.619Z,11.82
2022-09-26T07:52:59.799Z,12.48
2022-09-26T07:58:07.266Z,12.79
2022-09-26T08:03:13.411Z,12.85
2022-09-26T08:08:17.188Z,13.38
2022-09-26T08:13:21.098Z,13.96
2022-09-26T08:18:24.339Z,13.94
2022-09-26T08:23:27.521Z,13.58
2022-09-26T08:28:30.866Z,13.38
2022-09-26T08:33:35.593Z,13.56
2022-09-26T08:38:39.060Z,14.00
2022-09-26T08:43:42.360Z,14.92
2022-09-26T08:48:45.709Z,14.62
2022-09-26T08:53:48.396Z,14.59
2022-09-26T08:58:52.429Z,14.13
2022-09-26T09:03:55.565Z,13.69
2022-09-26T09:08:58.330Z,13.06
2022-09-26T09:14:01.168Z,13.01
2022-09-26T09:19:04.820Z,12.96
2022-09-26T09:24:08.173Z,13.60
2022-09-26T09:29:11.095Z,13.53
2022-09-26T09:34:14.020Z,13.59
2022-09-26T09:39:16.909Z,14.00
2022-09-26T09:44:19.626Z,15.17
2022-09-26T09:49:22.670Z,15.57
2022-09-26T09:54:25.354Z,15.79
2022-09-26T09:59:28.745Z,16.06
2022-09-26T10:04:31.530Z,15.14
2022-09-26T10:09:39.260Z,15.92
2022-09-26T10:14:43.074Z,16.35
2022-09-26T10:19:48.543Z,17.15
2022-09-26T10:24:51.625Z,17.32
2022-09-26T10:29:55.373Z,16.73
2022-09-26T10:34:58.497Z,15.24
2022-09-26T10:40:19.235Z,14.47
2022-09-26T10:45:29.374Z,12.93
2022-09-26T10:50:32.493Z,11.65
2022-09-26T10:55:36.583Z,11.79
2022-09-26T11:00:40.245Z,11.94
2022-09-26T11:05:59.273Z,12.59
2022-09-26T11:11:04.204Z,13.38
2022-09-26T11:16:07.008Z,13.69
2022-09-26T11:21:27.525Z,14.05
2022-09-26T11:26:32.157Z,14.32
2022-09-26T11:31:34.927Z,14.81
2022-09-26T11:36:39.659Z,15.04
2022-09-26T11:41:42.493Z,15.39
2022-09-26T11:46:47.623Z,15.56
2022-09-26T11:51:51.225Z,15.91
2022-09-26T11:56:53.887Z,15.74
2022-09-26T12:01:56.944Z,15.81
2022-09-26T12:07:01.951Z,15.21
2022-09-26T12:12:06.179Z,14.70
2022-09-26T12:17:08.890Z,14.66
2022-09-26T12:22:29.663Z,15.58
2022-09-26T12:27:32.664Z,15.20
2022-09-26T12:32:35.331Z,15.27
2022-09-26T12:37:39.342Z,15.23
2022-09-26T12:42:41.999Z,15.10
2022-09-26T12:47:44.761Z,15.06
2022-09-26T12:52:47.472Z,14.72
2022-09-26T12:57:51.036Z,13.76
2022-09-26T13:02:53.875Z,13.30
2022-09-26T13:07:57.328Z,13.16
2022-09-26T13:13:02.669Z,13.06
2022-09-26T13:18:05.345Z,12.92
2022-09-26T13:23:08.092Z,12.81
2022-09-26T13:28:10.809Z,12.79
2022-09-26T13:33:13.576Z,13.04
2022-09-26T13:38:16.330Z,13.06
2022-09-26T13:43:24.894Z,12.86
2022-09-26T13:48:27.573Z,13.10
2022-09-26T13:53:30.296Z,13.77
2022-09-26T13:58:35.749Z,13.70
2022-09-26T14:03:38.944Z,13.62
2022-09-26T14:08:59.272Z,13.86
2022-09-26T14:14:01.933Z,14.06
2022-09-26T14:19:04.967Z,14.56
2022-09-26T14:24:08.047Z,14.42
2022-09-26T14:29:10.821Z,14.38
2022-09-26T14:34:14.461Z,14.30
2022-09-26T14:39:18.407Z,14.18
2022-09-26T14:44:21.158Z,14.11
2022-09-26T14:49:24.284Z,14.05
2022-09-26T14:54:27.386Z,13.84
2022-09-26T14:59:30.114Z,13.77
2022-09-26T15:04:32.804Z,13.79
2022-09-26T15:09:40.093Z,13.67
2022-09-26T15:14:43.285Z,13.57
2022-09-26T15:19:46.133Z,13.52
2022-09-26T15:24:48.937Z,13.29
2022-09-26T15:29:51.634Z,13.17
2022-09-26T15:34:56.113Z,13.15
2022-09-26T15:39:59.268Z,13.15
2022-09-26T15:45:02.695Z,13.08
2022-09-26T15:50:08.835Z,13.03
2022-09-26T15:55:11.721Z,13.14
2022-09-26T16:00:14.626Z,13.24
2022-09-26T16:05:17.512Z,13.05
2022-09-26T16:10:20.319Z,13.01
2022-09-26T16:15:23.144Z,12.88
2022-09-26T16:20:26.946Z,12.65
2022-09-26T16:25:31.596Z,12.57
2022-09-26T16:30:34.414Z,12.54
2022-09-26T16:35:37.313Z,12.50
2022-09-26T16:40:40.082Z,12.51
2022-09-26T16:45:42.865Z,12.39
2022-09-26T16:50:45.720Z,12.10
2022-09-26T16:55:48.481Z,11.92
2022-09-26T17:01:09.082Z,11.60
2022-09-26T17:06:11.995Z,11.38
2022-09-26T17:11:14.904Z,11.22
2022-09-26T17:16:18.124Z,11.10
2022-09-26T17:21:22.863Z,10.94
2022-09-26T17:26:25.711Z,10.95
2022-09-26T17:31:28.592Z,11.16
2022-09-26T17:36:31.791Z,11.42
2022-09-26T17:41:34.813Z,11.52
2022-09-26T17:46:38.377Z,11.61
2022-09-26T17:51:42.332Z,11.59
2022-09-26T17:56:45.134Z,11.66
2022-09-26T18:01:48.137Z,11.62
2022-09-26T18:06:50.884Z,11.63
2022-09-26T18:11:54.274Z,11.59
2022-09-26T18:16:57.023Z,11.55
2022-09-26T18:21:59.864Z,11.52
2022-09-26T18:27:07.271Z,11.57
2022-09-26T18:32:10.895Z,11.52
2022-09-26T18:37:13.604Z,11.52
2022-09-26T18:42:17.494Z,11.57
2022-09-26T18:47:25.506Z,11.58
2022-09-26T18:52:30.565Z,11.62
2022-09-26T18:57:51.816Z,11.54
2022-09-26T19:02:55.320Z,11.48
2022-09-26T19:07:58.345Z,11.54
2022-09-26T19:13:01.810Z,11.57
2022-09-26T19:18:04.853Z,11.58
2022-09-26T19:23:08.340Z,11.60
2022-09-26T19:28:11.476Z,11.60
2022-09-26T19:33:14.633Z,11.54
2022-09-26T19:38:17.575Z,11.45
2022-09-26T19:43:20.710Z,11.29
2022-09-26T19:48:28.370Z,11.30
2022-09-26T19:53:31.744Z,11.30
2022-09-26T19:58:34.608Z,11.24
2022-09-26T20:03:40.084Z,11.22
2022-09-26T20:08:42.985Z,11.21
2022-09-26T20:14:04.505Z,11.27
2022-09-26T20:19:07.249Z,11.28
2022-09-26T20:24:10.045Z,11.25
2022-09-26T20:29:13.063Z,11.25
2022-09-26T20:34:17.309Z,11.13
2022-09-26T20:39:21.669Z,11.12
2022-09-26T20:44:27.072Z,11.16
2022-09-26T20:49:30.150Z,11.18
2022-09-26T20:54:33.049Z,11.11
2022-09-26T20:59:36.553Z,11.04
2022-09-26T21:04:39.404Z,11.07
2022-09-26T21:09:42.433Z,11.08
2022-09-26T21:14:45.390Z,11.05
2022-09-26T21:19:48.384Z,11.05
2022-09-26T21:24:51.510Z,11.03
2022-09-26T21:29:54.690Z,10.99
2022-09-26T21:34:57.790Z,10.83
2022-09-26T21:40:03.087Z,10.72
2022-09-26T21:45:06.186Z,10.64
2022-09-26T21:50:09.718Z,10.63
2022-09-26T21:55:12.822Z,10.66
2022-09-26T22:00:16.060Z,10.70
2022-09-26T22:05:22.732Z,10.69
2022-09-26T22:10:27.122Z,10.74
2022-09-26T22:15:30.553Z,10.72
2022-09-26T22:20:33.714Z,10.67
2022-09-26T22:25:42.106Z,10.67
2022-09-26T22:30:46.459Z,10.74
2022-09-26T22:35:49.654Z,10.72
2022-09-26T22:40:53.405Z,10.80
2022-09-26T22:45:56.629Z,10.80
2022-09-26T22:50:59.574Z,10.77
2022-09-26T22:56:05.436Z,10.82
2022-09-26T23:01:08.646Z,10.77
2022-09-26T23:06:11.937Z,10.85
2022-09-26T23:11:14.872Z,10.82
2022-09-26T23:16:18.152Z,10.79
2022-09-26T23:21:21.136Z,10.76
2022-09-26T23:26:24.594Z,10.77
2022-09-26T23:31:27.630Z,10.72
2022-09-26T23:36:30.935Z,10.69
2022-09-26T23:41:33.687Z,10.66
2022-09-26T23:46:36.754Z,10.58
2022-09-26T23:51:39.502Z,10.63
2022-09-26T23:56:42.219Z,10.62
